Time;durP1;ratioP1;P1;durP2;ratioP2;P2;SDS_P1;SDS_P2;PMS_P1;PMS_P2;Temp;Humidity;BMP_temperature;BMP_pressure;BME280_temperature;BME280_humidity;BME280_pressure;Samples;Min_cycle;Max_cycle;Signal;HPM_P1;HPM_P2
2021/01/19 00:02:11;;;;;;;56.63;29.00;;;;;;;-7.79;72.56;96336.47;5013285;28;20594;-59
2021/01/19 00:04:39;;;;;;;61.45;30.35;;;;;;;-7.77;72.74;96332.03;5017435;28;20061;-58
2021/01/19 00:07:06;;;;;;;60.95;27.45;;;;;;;-7.77;72.61;96326.91;5020431;28;20045;-58
2021/01/19 00:09:33;;;;;;;61.28;28.73;;;;;;;-7.77;72.80;96332.03;5001440;28;20045;-59
2021/01/19 00:12:00;;;;;;;58.38;29.65;;;;;;;-7.67;72.74;96326.94;5023033;28;20406;-58
2021/01/19 00:14:27;;;;;;;58.90;31.75;;;;;;;-7.64;72.76;96325.88;5013839;28;20045;-59
2021/01/19 00:16:54;;;;;;;69.80;30.95;;;;;;;-7.54;72.66;96315.66;4982966;28;20052;-59
2021/01/19 00:19:21;;;;;;;79.95;43.17;;;;;;;-7.54;72.10;96316.44;5019069;28;20049;-59
2021/01/19 00:21:48;;;;;;;92.30;49.58;;;;;;;-7.54;71.93;96313.88;5013230;28;20052;-58
2021/01/19 00:24:16;;;;;;;98.13;50.33;;;;;;;-7.52;71.92;96319.69;5009565;28;20434;-58
2021/01/19 00:26:43;;;;;;;89.43;48.47;;;;;;;-7.52;72.15;96319.69;5015798;28;20050;-58
2021/01/19 00:29:10;;;;;;;99.32;51.13;;;;;;;-7.51;72.19;96331.56;4995544;28;20064;-58
2021/01/19 00:31:38;;;;;;;97.22;54.10;;;;;;;-7.54;71.98;96321.56;5017573;28;20327;-59
2021/01/19 00:34:05;;;;;;;91.20;51.03;;;;;;;-7.55;71.95;96324.28;4998973;28;21135;-60
2021/01/19 00:36:32;;;;;;;110.35;52.35;;;;;;;-7.60;72.58;96316.97;5019639;28;20052;-58
2021/01/19 00:38:59;;;;;;;100.35;51.90;;;;;;;-7.70;73.00;96306.72;5010555;28;20498;-58
2021/01/19 00:41:26;;;;;;;99.43;48.30;;;;;;;-7.61;72.87;96315.38;5001744;28;20053;-58
2021/01/19 00:43:54;;;;;;;102.05;49.63;;;;;;;-7.53;72.78;96317.28;5014659;28;20222;-59
2021/01/19 00:46:22;;;;;;;87.03;44.72;;;;;;;-7.57;73.04;96309.03;5019462;28;20053;-58
2021/01/19 00:48:48;;;;;;;80.80;44.88;;;;;;;-7.52;73.31;96312.00;4980597;28;20889;-59
2021/01/19 00:51:16;;;;;;;77.88;44.03;;;;;;;-7.43;72.55;96312.97;4995513;28;20049;-58
2021/01/19 00:53:44;;;;;;;89.55;44.53;;;;;;;-7.38;72.55;96297.19;5006951;28;20060;-58
2021/01/19 00:56:11;;;;;;;75.07;39.60;;;;;;;-7.38;72.58;96294.63;4998151;28;20536;-58
2021/01/19 00:58:39;;;;;;;83.03;40.63;;;;;;;-7.41;72.94;96291.38;4996551;28;20744;-59
2021/01/19 01:01:08;;;;;;;73.43;40.47;;;;;;;-7.47;73.46;96296.22;5014278;28;20095;-58
2021/01/19 01:03:36;;;;;;;68.10;35.80;;;;;;;-7.49;73.48;96290.41;5016779;28;20056;-59
2021/01/19 01:06:03;;;;;;;57.45;30.60;;;;;;;-7.52;73.79;96283.81;4998835;28;20049;-58
2021/01/19 01:08:31;;;;;;;55.65;32.05;;;;;;;-7.35;73.35;96278.97;5001746;28;20429;-59
2021/01/19 01:10:58;;;;;;;58.50;31.95;;;;;;;-7.29;72.96;96292.06;5020845;28;20060;-59
2021/01/19 01:13:25;;;;;;;55.17;30.67;;;;;;;-7.24;73.17;96289.09;4995184;28;20045;-59
2021/01/19 01:15:53;;;;;;;80.10;40.63;;;;;;;-7.27;72.85;96286.81;5022472;28;20145;-58
2021/01/19 01:18:20;;;;;;;74.20;39.25;;;;;;;-7.36;72.97;96283.28;5018614;28;20535;-58
2021/01/19 01:20:47;;;;;;;74.35;38.67;;;;;;;-7.34;73.29;96285.72;5004225;28;20056;-59
2021/01/19 01:23:14;;;;;;;73.50;38.53;;;;;;;-7.32;72.85;96288.97;5017285;28;20045;-58
2021/01/19 01:25:42;;;;;;;83.97;43.08;;;;;;;-7.38;72.47;96276.69;5016062;28;20057;-59
2021/01/19 01:28:09;;;;;;;80.20;45.28;;;;;;;-7.30;72.75;96293.00;5001055;28;20816;-58
2021/01/19 01:30:36;;;;;;;86.40;44.95;;;;;;;-7.29;72.15;96284.38;5016106;28;20049;-60
2021/01/19 01:33:03;;;;;;;84.63;45.00;;;;;;;-7.30;72.21;96285.31;5021509;28;20041;-59
2021/01/19 01:35:31;;;;;;;83.25;46.60;;;;;;;-7.35;72.67;96289.22;5000071;28;20053;-59
2021/01/19 01:38:05;;;;;;;82.95;45.28;;;;;;;-7.38;72.73;96281.81;5017390;28;20057;-60
2021/01/19 01:40:34;;;;;;;83.13;45.35;;;;;;;-7.38;73.30;96280.03;5022123;28;20050;-58
2021/01/19 01:43:10;;;;;;;78.20;42.97;;;;;;;-7.35;73.32;96281.53;5001113;28;20049;-58
2021/01/19 01:45:40;;;;;;;76.95;45.85;;;;;;;-7.36;73.60;96285.84;4994943;28;20049;-58
2021/01/19 01:48:11;;;;;;;80.85;43.83;;;;;;;-7.33;73.47;96277.09;5006469;28;20049;-58
2021/01/19 01:50:39;;;;;;;87.15;44.25;;;;;;;-7.34;73.77;96278.84;5020803;28;20049;-58
2021/01/19 01:53:06;;;;;;;80.88;41.95;;;;;;;-7.34;73.98;96278.03;5023213;28;20042;-59
2021/01/19 01:55:35;;;;;;;91.35;47.95;;;;;;;-7.34;74.33;96273.72;5023870;28;20052;-59
2021/01/19 01:58:03;;;;;;;86.88;46.00;;;;;;;-7.34;74.23;96276.28;5008759;28;20049;-60
2021/01/19 02:00:30;;;;;;;86.40;45.63;;;;;;;-7.32;74.21;96268.47;5023510;28;20049;-59
2021/01/19 02:02:58;;;;;;;93.45;47.45;;;;;;;-7.28;74.37;96264.66;5018703;28;20651;-62
2021/01/19 02:05:26;;;;;;;89.30;45.08;;;;;;;-7.31;74.10;96260.63;5003043;28;20053;-62
2021/01/19 02:08:23;;;;;;;82.50;42.35;;;;;;;-7.27;74.23;96273.97;5025566;28;20561;-59
2021/01/19 02:10:56;;;;;;;71.05;37.33;;;;;;;-7.32;74.39;96264.13;5017256;28;20409;-59
2021/01/19 02:13:37;;;;;;;71.05;39.08;;;;;;;-7.30;74.30;96269.13;5017865;28;20052;-59
2021/01/19 02:16:22;;;;;;;74.70;39.00;;;;;;;-7.35;74.50;96266.97;5023135;28;20621;-65
2021/01/19 02:19:23;;;;;;;70.88;39.72;;;;;;;-7.35;74.51;96268.72;5022815;28;20049;-58
2021/01/19 02:22:14;;;;;;;74.07;37.42;;;;;;;-7.33;74.96;96262.50;5022764;28;20060;-59
2021/01/19 02:25:02;;;;;;;71.45;37.38;;;;;;;-7.34;74.84;96252.41;5004811;28;20654;-59
2021/01/19 02:27:57;;;;;;;71.30;34.65;;;;;;;-7.36;75.07;96264.53;5019559;28;20046;-58
2021/01/19 02:30:44;;;;;;;62.63;31.77;;;;;;;-7.36;75.15;96252.53;5001953;28;20441;-58
2021/01/19 02:33:24;;;;;;;56.72;32.47;;;;;;;-7.33;75.39;96246.34;5013516;28;20540;-59
2021/01/19 02:36:20;;;;;;;64.53;32.35;;;;;;;-7.32;75.44;96255.66;4992432;28;20068;-58
2021/01/19 02:39:02;;;;;;;57.42;31.50;;;;;;;-7.27;75.97;96248.34;4990001;28;20045;-59
2021/01/19 02:41:30;;;;;;;59.55;30.92;;;;;;;-7.29;75.84;96252.78;5009283;28;20041;-58
2021/01/19 02:44:07;;;;;;;66.57;34.60;;;;;;;-7.26;75.78;96234.59;5003935;28;20042;-62
2021/01/19 02:46:35;;;;;;;62.65;36.60;;;;;;;-7.23;75.78;96243.75;5009988;28;20060;-59
2021/01/19 02:49:03;;;;;;;71.10;34.75;;;;;;;-7.15;75.89;96243.91;5025195;28;20044;-58
2021/01/19 02:51:30;;;;;;;72.95;38.28;;;;;;;-7.26;75.81;96237.94;5020534;28;20049;-60
2021/01/19 02:53:59;;;;;;;62.90;35.72;;;;;;;-7.16;75.38;96245.63;5021790;28;20045;-60
2021/01/19 02:56:54;;;;;;;59.58;37.53;;;;;;;-7.16;75.79;96243.06;5010907;28;20058;-64
2021/01/19 02:59:40;;;;;;;68.53;37.03;;;;;;;-7.18;75.81;96244.97;5007916;28;20046;-61
2021/01/19 03:02:18;;;;;;;63.72;37.78;;;;;;;-7.17;75.74;96232.97;5022470;28;20052;-59
2021/01/19 03:04:52;;;;;;;68.65;36.08;;;;;;;-7.16;75.39;96243.06;5019767;28;20497;-59
2021/01/19 03:07:24;;;;;;;75.15;39.72;;;;;;;-7.09;75.71;96234.84;5024005;28;20060;-58
2021/01/19 03:09:52;;;;;;;62.83;33.00;;;;;;;-7.09;75.49;96222.03;5021732;28;20057;-59
2021/01/19 03:12:19;;;;;;;67.55;35.58;;;;;;;-7.07;75.61;96226.06;5015929;28;20054;-58
2021/01/19 03:14:46;;;;;;;65.28;34.58;;;;;;;-7.04;75.44;96222.41;5017594;28;20064;-59
2021/01/19 03:17:13;;;;;;;66.60;34.30;;;;;;;-7.01;75.79;96219.59;5022607;28;20049;-58
2021/01/19 03:19:42;;;;;;;64.72;33.75;;;;;;;-7.00;75.69;96222.00;5004364;28;20045;-59
2021/01/19 03:22:12;;;;;;;66.82;35.60;;;;;;;-7.02;75.77;96216.22;5019972;28;20072;-59
2021/01/19 03:24:39;;;;;;;67.32;35.75;;;;;;;-7.03;76.01;96222.28;5018214;28;20045;-59
2021/01/19 03:27:07;;;;;;;65.68;35.90;;;;;;;-7.07;76.22;96220.13;5004572;28;20497;-59
2021/01/19 03:29:35;;;;;;;64.30;34.70;;;;;;;-7.05;76.47;96210.53;5022203;28;20271;-59
2021/01/19 03:32:03;;;;;;;62.88;35.55;;;;;;;-7.07;76.21;96212.44;5016964;28;20437;-58
2021/01/19 03:34:33;;;;;;;62.28;35.83;;;;;;;-7.08;76.23;96209.06;4995749;28;20081;-58
2021/01/19 03:37:01;;;;;;;58.28;31.42;;;;;;;-7.05;75.90;96219.06;4996224;28;20052;-59
2021/01/19 03:39:29;;;;;;;58.42;34.42;;;;;;;-7.07;75.92;96212.44;4987762;28;20060;-59
2021/01/19 03:41:57;;;;;;;61.60;33.53;;;;;;;-7.01;75.75;96217.03;5014996;28;20060;-59
2021/01/19 03:44:25;;;;;;;61.53;32.17;;;;;;;-7.04;76.07;96212.97;5000995;28;20041;-63
2021/01/19 03:46:52;;;;;;;59.53;31.42;;;;;;;-7.04;75.90;96196.78;5021367;28;20045;-59
2021/01/19 03:49:19;;;;;;;66.13;32.95;;;;;;;-7.03;75.85;96208.66;5002191;28;20049;-59
2021/01/19 03:51:47;;;;;;;55.10;31.95;;;;;;;-7.43;75.61;96154.88;5001797;28;20062;-59
2021/01/19 03:54:14;;;;;;;64.97;33.25;;;;;;;-7.04;75.97;96205.28;5016717;28;20052;-58
2021/01/19 03:56:41;;;;;;;62.10;35.53;;;;;;;-7.07;76.25;96199.59;5001031;28;20061;-62
2021/01/19 03:59:09;;;;;;;53.55;30.30;;;;;;;-7.12;76.51;96194.91;5015669;28;20049;-58
2021/01/19 04:01:42;;;;;;;71.22;35.08;;;;;;;-7.12;76.65;96202.59;5000128;28;20049;-59
2021/01/19 04:04:09;;;;;;;57.15;32.55;;;;;;;-7.13;76.59;96194.09;5002320;28;20041;-59
2021/01/19 04:06:36;;;;;;;65.85;35.45;;;;;;;-7.12;76.97;96200.03;5022930;28;20053;-59
2021/01/19 04:09:04;;;;;;;55.88;31.25;;;;;;;-7.14;76.79;96195.03;4986998;28;20050;-59
2021/01/19 04:11:31;;;;;;;58.97;32.42;;;;;;;-7.07;76.78;96202.16;5020779;28;20052;-59
2021/01/19 04:13:58;;;;;;;66.35;32.85;;;;;;;-7.03;76.88;96200.97;4998516;28;20041;-58
2021/01/19 04:16:25;;;;;;;67.50;34.13;;;;;;;-7.01;76.42;96209.31;5023442;28;20468;-58
2021/01/19 04:18:52;;;;;;;56.67;32.22;;;;;;;-7.00;76.44;96196.34;5011069;28;20053;-58
2021/01/19 04:21:19;;;;;;;64.60;33.25;;;;;;;-7.00;76.48;96201.47;5020219;28;22739;-59
2021/01/19 04:23:46;;;;;;;58.30;33.88;;;;;;;-7.01;76.41;96189.59;5015992;28;20056;-59
2021/01/19 04:26:13;;;;;;;63.63;34.38;;;;;;;-7.02;76.84;96202.56;5009541;28;20421;-58
2021/01/19 04:28:41;;;;;;;58.00;31.27;;;;;;;-7.09;76.50;96201.53;5019963;28;20083;-59
2021/01/19 04:31:08;;;;;;;64.05;33.00;;;;;;;-7.12;76.99;96202.59;5004851;28;20429;-59
2021/01/19 04:33:35;;;;;;;63.90;36.45;;;;;;;-7.08;76.94;96193.69;5006415;28;20061;-60
2021/01/19 04:36:03;;;;;;;65.50;35.72;;;;;;;-7.01;76.84;96207.56;5021990;28;20053;-59
2021/01/19 04:38:30;;;;;;;65.35;35.35;;;;;;;-6.98;76.55;96207.28;4995097;28;20056;-69
2021/01/19 04:40:57;;;;;;;62.65;33.25;;;;;;;-6.99;76.95;96192.06;5003754;28;20049;-58
2021/01/19 04:43:26;;;;;;;64.90;37.03;;;;;;;-6.98;76.57;96209.06;5009491;28;20084;-58
2021/01/19 04:45:53;;;;;;;71.38;37.53;;;;;;;-7.04;77.43;96201.91;5016435;28;20049;-58
2021/01/19 04:48:20;;;;;;;73.43;38.47;;;;;;;-6.99;77.18;96207.44;5003804;28;20418;-58
2021/01/19 04:50:48;;;;;;;89.10;45.03;;;;;;;-6.92;76.75;96205.13;5015072;28;20049;-58
2021/01/19 04:53:18;;;;;;;102.18;52.20;;;;;;;-7.02;76.80;96195.72;5001477;28;20414;-59
2021/01/19 04:55:53;;;;;;;102.07;54.55;;;;;;;-7.19;76.43;96169.00;5001281;28;20049;-59
2021/01/19 04:58:22;;;;;;;101.63;54.93;;;;;;;-6.97;76.66;96211.47;5001045;28;20053;-58
2021/01/19 05:01:03;;;;;;;113.75;54.85;;;;;;;-6.90;76.69;96203.25;5021825;28;20302;-58
2021/01/19 05:03:41;;;;;;;94.65;50.42;;;;;;;-6.92;76.37;96202.56;5014145;28;20349;-58
2021/01/19 05:06:37;;;;;;;102.05;54.67;;;;;;;-6.93;76.40;96190.69;5021792;28;20421;-59
2021/01/19 05:09:09;;;;;;;95.03;50.42;;;;;;;-6.91;76.31;96192.16;5018233;28;20864;-68
2021/01/19 05:11:48;;;;;;;106.30;54.60;;;;;;;-6.91;76.26;96194.72;5014966;28;20049;-61
2021/01/19 05:14:20;;;;;;;93.70;54.75;;;;;;;-6.89;76.56;96192.03;5014686;28;20037;-62
2021/01/19 05:16:51;;;;;;;97.18;50.00;;;;;;;-6.95;76.19;96194.19;5022001;28;20061;-58
2021/01/19 05:19:23;;;;;;;94.07;50.92;;;;;;;-7.06;76.19;96196.91;5023481;28;20046;-60
2021/01/19 05:21:53;;;;;;;93.53;54.17;;;;;;;-7.01;76.77;96186.25;4987502;28;20057;-59
2021/01/19 05:24:21;;;;;;;94.50;48.30;;;;;;;-7.02;76.53;96203.41;5006211;28;20048;-58
2021/01/19 05:26:48;;;;;;;104.65;52.50;;;;;;;-7.03;76.89;96186.41;5023096;28;20049;-61
2021/01/19 05:29:15;;;;;;;102.13;57.60;;;;;;;-7.01;77.14;96204.19;5021670;28;20053;-59
2021/01/19 05:31:50;;;;;;;115.43;57.72;;;;;;;-7.00;76.99;96193.00;5023819;28;20053;-59
2021/01/19 05:34:17;;;;;;;100.97;54.20;;;;;;;-6.98;76.88;96198.81;5017501;28;20041;-58
2021/01/19 05:36:49;;;;;;;95.82;53.78;;;;;;;-6.95;77.00;96198.50;5020741;28;20064;-59
2021/01/19 05:39:19;;;;;;;109.28;55.22;;;;;;;-6.98;76.80;96193.66;5019454;28;20060;-58
2021/01/19 05:41:48;;;;;;;102.47;53.85;;;;;;;-6.98;76.96;96204.72;4999818;28;20052;-60
2021/01/19 05:44:26;;;;;;;100.93;54.15;;;;;;;-6.98;76.93;96193.66;5019303;28;20044;-59
2021/01/19 05:47:01;;;;;;;101.18;51.50;;;;;;;-6.98;77.05;96198.81;5023736;28;20045;-59
2021/01/19 05:49:33;;;;;;;93.35;48.10;;;;;;;-6.96;76.89;96207.16;5009914;28;20049;-59
2021/01/19 05:52:15;;;;;;;83.75;46.50;;;;;;;-6.98;76.84;96203.94;4987950;28;20708;-59
2021/01/19 05:54:44;;;;;;;72.05;40.00;;;;;;;-7.00;77.03;96205.81;5004658;28;20076;-63
2021/01/19 05:57:12;;;;;;;83.05;49.58;;;;;;;-7.01;77.39;96204.19;5021563;28;20064;-59
2021/01/19 05:59:44;;;;;;;91.18;45.70;;;;;;;-6.97;77.42;96192.72;5020256;28;20549;-59
2021/01/19 06:02:17;;;;;;;97.93;49.38;;;;;;;-6.91;77.09;96194.72;5018195;28;20073;-59
2021/01/19 06:04:49;;;;;;;89.00;44.95;;;;;;;-6.92;77.05;96197.44;5004025;28;20052;-60
2021/01/19 06:07:24;;;;;;;98.20;49.40;;;;;;;-6.87;77.02;96200.38;5024995;28;20528;-59
2021/01/19 06:09:53;;;;;;;100.10;54.60;;;;;;;-6.89;76.95;96200.53;4991317;28;20064;-59
2021/01/19 06:12:21;;;;;;;111.25;57.70;;;;;;;-6.87;77.07;96195.25;5018576;28;20301;-59
2021/01/19 06:14:49;;;;;;;102.18;56.63;;;;;;;-6.80;77.11;96206.59;5019783;28;20041;-59
2021/01/19 06:17:21;;;;;;;109.35;57.70;;;;;;;-6.78;76.94;96201.31;4999347;28;20045;-62
2021/01/19 06:19:51;;;;;;;103.03;54.63;;;;;;;-6.80;77.09;96191.97;5011000;28;20537;-58
2021/01/19 06:22:22;;;;;;;111.43;60.40;;;;;;;-6.67;76.29;96206.25;5013983;28;20049;-59
2021/01/19 06:24:52;;;;;;;103.18;57.33;;;;;;;-6.66;75.98;96197.59;5013941;28;20053;-59
2021/01/19 06:27:22;;;;;;;107.53;57.67;;;;;;;-6.61;76.22;96192.88;5020386;28;20052;-58
2021/01/19 06:29:59;;;;;;;110.78;61.65;;;;;;;-6.60;76.20;96202.19;4995085;28;20045;-59
2021/01/19 06:32:26;;;;;;;108.05;60.05;;;;;;;-6.61;76.53;96190.31;4994453;28;20064;-59
2021/01/19 06:34:54;;;;;;;111.70;61.80;;;;;;;-6.62;76.85;96196.41;4993055;28;20045;-58
2021/01/19 06:37:27;;;;;;;122.15;64.63;;;;;;;-6.58;76.54;96199.47;4998573;28;20053;-58
2021/01/19 06:40:00;;;;;;;122.22;65.63;;;;;;;-6.64;76.42;96180.31;4997728;28;20045;-59
2021/01/19 06:42:29;;;;;;;118.55;61.33;;;;;;;-6.62;76.37;96198.97;5007495;28;20087;-60
2021/01/19 06:45:03;;;;;;;127.30;69.10;;;;;;;-6.58;76.60;96200.28;5011707;28;20652;-60
2021/01/19 06:47:40;;;;;;;131.90;68.03;;;;;;;-6.56;76.45;96193.25;5013386;28;20045;-59
2021/01/19 06:50:08;;;;;;;123.97;70.28;;;;;;;-6.55;76.04;96194.06;4980465;28;20171;-58
2021/01/19 06:52:42;;;;;;;124.45;70.13;;;;;;;-6.56;75.98;96192.44;4999753;28;20068;-58
2021/01/19 06:55:19;;;;;;;118.13;66.07;;;;;;;-6.62;75.77;96188.69;5009383;28;20041;-58
2021/01/19 06:58:13;;;;;;;121.10;67.65;;;;;;;-6.58;76.87;96179.75;5008664;28;20049;-58
2021/01/19 07:00:42;;;;;;;115.47;64.57;;;;;;;-6.52;76.33;96194.59;5010715;28;20057;-58
2021/01/19 07:03:21;;;;;;;115.10;63.30;;;;;;;-6.52;76.48;96186.88;4997372;28;20447;-58
2021/01/19 07:05:54;;;;;;;130.60;69.25;;;;;;;-6.46;75.91;96187.28;5000249;28;20045;-58
2021/01/19 07:08:21;;;;;;;120.28;71.97;;;;;;;-6.47;75.86;96190.81;5003795;28;20053;-58
2021/01/19 07:10:48;;;;;;;128.27;67.38;;;;;;;-6.51;76.01;96185.13;5007330;28;20053;-57
2021/01/19 07:13:25;;;;;;;126.40;69.90;;;;;;;-6.45;75.75;96187.13;5021834;28;20057;-61
2021/01/19 07:16:02;;;;;;;119.97;72.43;;;;;;;-6.39;75.65;96188.31;5006345;28;20049;-57
2021/01/19 07:18:42;;;;;;;150.75;72.57;;;;;;;-6.37;75.92;96189.00;5005011;28;20418;-57
2021/01/19 07:21:12;;;;;;;121.95;70.20;;;;;;;-6.31;75.96;96185.84;5004613;28;20053;-59
2021/01/19 07:24:15;;;;;;;121.28;67.30;;;;;;;-6.23;75.82;96191.09;5003050;28;20473;-59
2021/01/19 07:26:45;;;;;;;120.65;68.43;;;;;;;-6.10;75.62;96192.50;5019315;28;20064;-59
2021/01/19 07:29:15;;;;;;;121.35;65.05;;;;;;;-5.97;74.95;96190.38;5009746;28;20490;-59
2021/01/19 07:31:43;;;;;;;120.03;67.35;;;;;;;-5.86;75.27;96184.19;5020235;28;20053;-58
2021/01/19 07:34:16;;;;;;;133.07;71.85;;;;;;;-5.79;74.87;96192.13;5018881;28;20530;-58
2021/01/19 07:36:52;;;;;;;113.43;66.25;;;;;;;-5.74;74.77;96202.78;5015813;28;20061;-58
2021/01/19 07:39:20;;;;;;;115.70;68.93;;;;;;;-5.70;74.50;96188.66;5018435;28;20041;-59
2021/01/19 07:41:48;;;;;;;118.70;72.70;;;;;;;-5.60;74.56;96197.13;5018200;28;20049;-58
2021/01/19 07:44:23;;;;;;;130.27;71.60;;;;;;;-5.54;74.49;96194.91;5019053;28;20061;-59
2021/01/19 07:47:14;;;;;;;121.15;69.03;;;;;;;-5.51;74.76;96202.34;5003254;28;20045;-59
2021/01/19 07:49:43;;;;;;;119.43;69.53;;;;;;;-5.46;74.66;96202.69;5022486;28;20049;-58
2021/01/19 07:52:12;;;;;;;114.53;66.55;;;;;;;-5.44;74.45;96195.66;5007663;28;20053;-59
2021/01/19 07:54:41;;;;;;;116.72;70.60;;;;;;;-5.42;74.81;96193.75;4976766;28;20445;-58
2021/01/19 07:57:13;;;;;;;122.28;68.07;;;;;;;-5.38;74.92;96189.09;5013966;28;20057;-59
2021/01/19 07:59:42;;;;;;;112.72;65.93;;;;;;;-5.26;74.32;96191.31;4995119;28;20045;-57
2021/01/19 08:02:24;;;;;;;105.18;62.88;;;;;;;-5.21;74.04;96193.44;5010561;28;20064;-59
2021/01/19 08:04:59;;;;;;;110.80;64.95;;;;;;;-5.15;74.28;96204.88;4991207;28;20076;-58
2021/01/19 08:07:40;;;;;;;;;;;;;;;-5.17;73.80;96193.94;5014528;28;20508;-59
2021/01/19 08:10:40;;;;;;;121.28;67.93;;;;;;;-5.14;73.97;96191.84;5018863;28;20408;-58
2021/01/19 08:13:16;;;;;;;127.32;70.57;;;;;;;-5.11;73.80;96196.72;4970429;28;20076;-58
2021/01/19 08:15:47;;;;;;;140.40;74.05;;;;;;;-5.01;73.00;96196.63;5022158;28;21782;-56
2021/01/19 08:18:17;;;;;;;127.72;72.43;;;;;;;-5.08;73.62;96184.50;5020922;28;20064;-58
2021/01/19 08:21:03;;;;;;;114.10;69.55;;;;;;;-4.78;73.08;96190.97;5023781;28;20052;-58
2021/01/19 08:23:33;;;;;;;123.05;68.72;;;;;;;-4.56;72.74;96175.94;5005848;28;20082;-58
2021/01/19 08:26:07;;;;;;;129.15;72.93;;;;;;;-4.41;72.50;96184.72;5021208;28;20536;-60
2021/01/19 08:28:36;;;;;;;121.05;72.15;;;;;;;-4.30;72.22;96180.25;5006920;28;20072;-61
2021/01/19 08:31:14;;;;;;;119.13;72.07;;;;;;;-4.20;72.43;96184.31;5023380;28;20053;-63
2021/01/19 08:33:49;;;;;;;105.55;65.20;;;;;;;-4.08;71.62;96182.25;5014289;28;20065;-59
2021/01/19 08:36:19;;;;;;;100.28;60.45;;;;;;;-3.95;71.41;96183.56;4998363;28;20064;-66
2021/01/19 08:38:50;;;;;;;98.57;56.45;;;;;;;-3.97;71.42;96186.31;5001202;28;20057;-60
2021/01/19 08:41:18;;;;;;;105.32;62.13;;;;;;;-3.82;71.45;96194.22;5019019;28;20087;-58
2021/01/19 08:43:55;;;;;;;107.13;61.10;;;;;;;-3.84;71.23;96190.19;5003804;28;20788;-61
2021/01/19 08:46:24;;;;;;;112.18;60.10;;;;;;;-3.86;71.09;96188.59;5022548;28;20056;-60
2021/01/19 08:48:52;;;;;;;110.35;60.03;;;;;;;-3.79;71.48;96180.22;5026174;28;20072;-59
2021/01/19 08:51:25;;;;;;;104.88;63.15;;;;;;;-3.72;71.63;96191.50;5044133;28;20045;-65
2021/01/19 08:53:53;;;;;;;105.25;64.43;;;;;;;-3.61;71.71;96185.22;5035611;28;20049;-59
2021/01/19 08:56:25;;;;;;;112.93;65.50;;;;;;;-3.58;71.36;96188.31;5011655;28;20041;-58
2021/01/19 08:58:53;;;;;;;114.90;65.07;;;;;;;-3.51;71.32;96185.91;5020902;28;20064;-59
2021/01/19 09:01:21;;;;;;;124.05;76.05;;;;;;;-3.51;70.58;96191.06;5015535;28;20041;-58
2021/01/19 09:04:00;;;;;;;131.23;80.82;;;;;;;-3.48;70.74;96182.19;4989917;28;20041;-66
2021/01/19 09:06:28;;;;;;;136.35;80.03;;;;;;;-3.46;69.98;96185.41;5017209;28;20408;-59
2021/01/19 09:09:00;;;;;;;139.18;83.82;;;;;;;-3.46;69.87;96177.69;5003083;28;20053;-58
2021/01/19 09:11:32;;;;;;;147.02;84.32;;;;;;;-3.42;70.37;96176.38;5017133;28;21016;-58
2021/01/19 09:14:08;;;;;;;144.70;83.60;;;;;;;-3.36;69.99;96177.50;5009971;28;20237;-60
2021/01/19 09:16:39;;;;;;;139.00;84.87;;;;;;;-3.32;69.83;96174.44;5011782;28;20049;-61
2021/01/19 09:19:10;;;;;;;133.18;82.38;;;;;;;-3.32;70.42;96171.06;5007951;28;20053;-58
2021/01/19 09:21:38;;;;;;;129.38;76.50;;;;;;;-3.10;70.16;96167.81;5008032;28;20487;-58
2021/01/19 09:24:21;;;;;;;132.73;76.97;;;;;;;-3.01;69.82;96160.06;4996088;28;20045;-59
2021/01/19 09:27:01;;;;;;;133.75;77.18;;;;;;;-2.91;69.04;96160.72;4980334;28;20107;-58
2021/01/19 09:29:31;;;;;;;121.68;70.88;;;;;;;-2.86;69.22;96145.50;4994900;28;20046;-58
2021/01/19 09:32:03;;;;;;;119.25;72.43;;;;;;;-2.79;69.05;96149.06;5013995;28;20238;-56
2021/01/19 09:34:31;;;;;;;134.95;76.53;;;;;;;-2.81;68.74;96140.66;5003772;28;20052;-58
2021/01/19 09:36:58;;;;;;;116.28;70.72;;;;;;;-2.65;69.29;96147.56;5013329;28;20422;-61
2021/01/19 09:39:28;;;;;;;106.97;64.00;;;;;;;-2.55;69.55;96149.94;4975992;28;20057;-58
2021/01/19 09:41:57;;;;;;;124.18;72.65;;;;;;;-2.45;68.98;96133.44;5012290;28;20049;-58
2021/01/19 09:44:26;;;;;;;120.53;71.03;;;;;;;-2.39;68.36;96135.34;4990040;28;20221;-58
2021/01/19 09:46:59;;;;;;;112.68;65.93;;;;;;;-2.36;69.12;96128.09;4995630;28;20053;-58
2021/01/19 09:49:27;;;;;;;121.03;72.38;;;;;;;-2.24;68.88;96130.28;4992457;28;20053;-57
2021/01/19 09:51:55;;;;;;;110.63;67.95;;;;;;;-2.18;68.54;96139.94;5011761;28;20045;-57
2021/01/19 09:54:23;;;;;;;118.35;70.93;;;;;;;-2.13;68.23;96136.84;4978252;28;20053;-58
2021/01/19 09:56:57;;;;;;;112.80;72.05;;;;;;;-2.05;68.04;96139.41;5007308;28;20061;-58
2021/01/19 09:59:30;;;;;;;108.57;63.55;;;;;;;-2.01;67.64;96138.06;4978327;28;20076;-60
2021/01/19 10:02:01;;;;;;;113.07;68.00;;;;;;;-1.97;67.64;96135.97;4995037;28;20050;-57
2021/01/19 10:04:29;;;;;;;125.07;71.30;;;;;;;-1.91;68.16;96135.25;4994670;28;20539;-57
2021/01/19 10:07:07;;;;;;;121.53;72.47;;;;;;;-1.81;67.76;96138.41;5001780;28;20239;-57
2021/01/19 10:09:36;;;;;;;122.82;71.72;;;;;;;-2.01;67.30;96135.47;5005729;28;20429;-58
2021/01/19 10:12:08;;;;;;;110.30;65.15;;;;;;;-2.24;67.90;96125.13;5021617;28;20041;-58
2021/01/19 10:14:38;;;;;;;113.22;68.68;;;;;;;-2.18;68.37;96135.59;5015935;28;20052;-57
2021/01/19 10:17:30;;;;;;;115.47;66.35;;;;;;;-2.10;68.84;96136.50;5004392;28;20045;-58
2021/01/19 10:20:16;;;;;;;106.10;65.25;;;;;;;-2.00;69.07;96131.91;5019225;28;20057;-58
2021/01/19 10:22:49;;;;;;;103.75;63.78;;;;;;;-1.89;69.47;96133.31;5015866;28;20072;-58
2021/01/19 10:25:34;;;;;;;111.68;62.47;;;;;;;-1.72;69.04;96119.28;5016201;28;21413;-57
2021/01/19 10:28:05;;;;;;;79.82;47.58;;;;;;;-1.60;70.12;96124.88;5020745;28;20050;-59
2021/01/19 10:30:40;;;;;;;83.95;51.90;;;;;;;-1.44;69.92;96123.13;5024942;28;20419;-57
2021/01/19 10:33:07;;;;;;;67.10;39.40;;;;;;;-1.29;70.87;96107.63;5004346;28;20057;-60
2021/01/19 10:35:37;;;;;;;61.28;39.03;;;;;;;-1.10;71.18;96095.97;5021645;28;20041;-57
2021/01/19 10:38:08;;;;;;;65.10;35.05;;;;;;;-0.89;70.58;96091.84;5004141;28;20042;-58
2021/01/19 10:40:37;;;;;;;97.05;57.88;;;;;;;-0.81;68.98;96094.38;5024432;28;20242;-59
2021/01/19 10:43:09;;;;;;;92.35;56.85;;;;;;;-0.86;68.89;96091.50;4979059;28;20597;-59
2021/01/19 10:45:42;;;;;;;97.40;58.42;;;;;;;-0.77;68.31;96095.59;5011398;28;20049;-63
2021/01/19 10:48:20;;;;;;;98.13;58.28;;;;;;;-0.65;67.72;96095.97;5017957;28;20049;-59
2021/01/19 10:50:49;;;;;;;88.45;56.00;;;;;;;-0.54;67.71;96089.50;5005237;28;20049;-58
2021/01/19 10:53:27;;;;;;;88.45;54.72;;;;;;;-0.49;67.65;96080.19;5011191;28;22069;-59
2021/01/19 10:55:54;;;;;;;94.90;55.83;;;;;;;-0.39;68.26;96079.94;5009198;28;20060;-58
2021/01/19 10:58:22;;;;;;;98.32;58.45;;;;;;;-0.21;67.59;96078.72;5009767;28;20054;-58
2021/01/19 11:00:49;;;;;;;92.85;58.97;;;;;;;-0.15;67.45;96072.81;5020141;28;20045;-58
2021/01/19 11:03:17;;;;;;;88.88;55.38;;;;;;;-0.07;67.29;96058.91;5018690;28;20052;-59
2021/01/19 11:05:45;;;;;;;64.60;39.75;;;;;;;0.02;67.70;96073.38;5017137;28;20049;-60
2021/01/19 11:08:14;;;;;;;39.50;24.55;;;;;;;0.03;67.62;96071.59;4986479;28;20041;-57
2021/01/19 11:10:41;;;;;;;39.85;24.85;;;;;;;0.15;68.39;96068.31;5006887;28;20061;-58
2021/01/19 11:13:08;;;;;;;35.72;23.42;;;;;;;0.22;68.17;96060.59;5002125;28;20656;-57
2021/01/19 11:15:35;;;;;;;32.35;21.95;;;;;;;0.24;67.51;96053.41;5012437;28;20041;-59
2021/01/19 11:18:03;;;;;;;33.97;21.92;;;;;;;0.34;68.23;96054.88;5017101;28;20053;-60
2021/01/19 11:20:31;;;;;;;43.20;25.73;;;;;;;0.45;67.30;96055.19;5019505;28;20045;-60
2021/01/19 11:22:58;;;;;;;47.92;29.73;;;;;;;0.49;67.70;96053.03;5001860;28;20053;-59
2021/01/19 11:25:26;;;;;;;50.83;30.00;;;;;;;0.59;67.42;96043.09;5015553;28;20045;-58
2021/01/19 11:27:53;;;;;;;46.05;28.40;;;;;;;0.63;67.58;96040.94;5015498;28;20056;-62
2021/01/19 11:30:20;;;;;;;49.53;30.25;;;;;;;0.71;67.24;96045.16;5017483;28;20053;-60
2021/01/19 11:32:47;;;;;;;42.95;28.63;;;;;;;0.74;67.02;96035.19;5004993;28;20049;-60
2021/01/19 11:35:15;;;;;;;33.22;22.63;;;;;;;0.75;66.96;96029.03;5011691;28;20069;-59